Time;durP1;ratioP1;P1;durP2;ratioP2;P2;SDS_P1;SDS_P2;PMS_P1;PMS_P2;Temp;Humidity;BMP_temperature;BMP_pressure;BME280_temperature;BME280_humidity;BME280_pressure;Samples;Min_cycle;Max_cycle;Signal;HPM_P1;HPM_P2
2021/01/06 00:00:04;;;;;;;6.00;5.50;;;3.30;99.90;;;;;;5051252;28;20483;-65
2021/01/06 00:02:30;;;;;;;6.07;5.57;;;3.30;99.90;;;;;;5051638;28;20488;-65
2021/01/06 00:04:57;;;;;;;5.10;4.70;;;3.30;99.90;;;;;;5051110;28;20447;-68
2021/01/06 00:07:23;;;;;;;5.17;4.77;;;3.30;99.90;;;;;;5051139;28;20475;-65
2021/01/06 00:09:49;;;;;;;5.60;5.10;;;3.40;99.90;;;;;;5043562;28;20490;-66
2021/01/06 00:12:18;;;;;;;5.90;5.40;;;3.30;99.90;;;;;;5048721;28;20487;-68
2021/01/06 00:14:45;;;;;;;5.47;4.97;;;3.30;99.90;;;;;;5047132;28;20880;-68
2021/01/06 00:17:12;;;;;;;6.17;4.87;;;3.20;99.90;;;;;;5051558;28;20468;-65
2021/01/06 00:19:38;;;;;;;5.23;4.83;;;3.20;99.90;;;;;;5051388;28;20541;-64
2021/01/06 00:22:05;;;;;;;5.87;5.47;;;3.10;99.90;;;;;;5051324;28;20487;-66
2021/01/06 00:24:31;;;;;;;5.80;5.30;;;3.10;99.90;;;;;;5049783;28;20467;-65
2021/01/06 00:26:57;;;;;;;5.90;5.40;;;3.10;99.90;;;;;;5053279;28;20447;-69
2021/01/06 00:29:24;;;;;;;6.50;5.50;;;3.10;99.90;;;;;;5051127;28;20482;-66
2021/01/06 00:31:50;;;;;;;5.50;5.00;;;3.10;99.90;;;;;;5049478;28;20898;-66
2021/01/06 00:34:18;;;;;;;7.17;5.43;;;3.10;99.90;;;;;;5050714;28;20464;-66
2021/01/06 00:36:44;;;;;;;6.00;5.50;;;3.10;99.90;;;;;;5051105;28;20877;-66
2021/01/06 00:39:10;;;;;;;6.17;5.57;;;3.00;99.90;;;;;;5052286;28;20491;-66
2021/01/06 00:41:37;;;;;;;6.67;5.60;;;3.00;99.90;;;;;;5054864;28;20521;-66
2021/01/06 00:44:04;;;;;;;6.43;5.83;;;3.00;99.90;;;;;;5054520;28;20817;-65
2021/01/06 00:46:33;;;;;;;6.97;5.43;;;3.10;99.90;;;;;;5053684;28;20840;-65
2021/01/06 00:49:01;;;;;;;6.10;5.50;;;3.00;99.90;;;;;;5045802;28;20459;-67
2021/01/06 00:51:28;;;;;;;6.10;5.60;;;3.10;99.90;;;;;;5053064;28;20474;-67
2021/01/06 00:53:54;;;;;;;6.37;5.77;;;3.10;99.90;;;;;;5040958;28;20825;-65
2021/01/06 00:56:27;;;;;;;5.83;5.33;;;3.10;99.90;;;;;;5053953;28;20489;-67
2021/01/06 00:58:53;;;;;;;6.10;5.50;;;3.10;99.90;;;;;;5041827;28;20468;-67
2021/01/06 01:01:19;;;;;;;5.90;5.30;;;3.10;99.90;;;;;;5039332;28;20789;-66
2021/01/06 01:03:46;;;;;;;5.40;5.00;;;3.10;99.90;;;;;;5046600;28;20490;-66
2021/01/06 01:06:12;;;;;;;5.37;4.90;;;3.10;99.90;;;;;;5052472;28;20458;-66
2021/01/06 01:08:39;;;;;;;5.60;5.20;;;3.10;99.90;;;;;;5037501;28;20467;-70
2021/01/06 01:11:05;;;;;;;6.33;5.50;;;3.10;99.90;;;;;;5052976;28;20460;-67
2021/01/06 01:13:32;;;;;;;6.20;5.67;;;3.10;99.90;;;;;;5051612;28;20880;-67
2021/01/06 01:15:58;;;;;;;6.73;5.53;;;3.10;99.90;;;;;;5052882;28;20455;-68
2021/01/06 01:18:27;;;;;;;6.13;5.60;;;3.20;99.90;;;;;;5036399;28;20464;-69
2021/01/06 01:20:54;;;;;;;9.33;5.77;;;3.10;99.90;;;;;;5050590;28;20904;-67
2021/01/06 01:23:23;;;;;;;6.10;5.50;;;3.10;99.90;;;;;;5055277;28;20468;-67
2021/01/06 01:25:50;;;;;;;5.00;4.60;;;3.10;99.90;;;;;;5051514;28;20471;-67
2021/01/06 01:28:19;;;;;;;6.63;5.93;;;3.10;99.90;;;;;;5053305;28;20537;-67
2021/01/06 01:30:45;;;;;;;6.23;5.73;;;3.10;99.90;;;;;;5054433;28;20448;-68
2021/01/06 01:33:13;;;;;;;5.53;5.03;;;3.00;99.90;;;;;;5054152;28;20496;-66
2021/01/06 01:35:39;;;;;;;6.13;5.63;;;3.00;99.90;;;;;;5052887;28;20466;-67
2021/01/06 01:38:07;;;;;;;5.77;5.20;;;3.00;99.90;;;;;;5054348;28;20946;-71
2021/01/06 01:40:37;;;;;;;6.00;5.50;;;3.10;99.90;;;;;;5052877;28;20483;-67
2021/01/06 01:43:07;;;;;;;5.60;5.10;;;3.10;99.90;;;;;;5053518;28;20490;-70
2021/01/06 01:45:59;;;;;;;5.30;4.77;;;3.10;99.90;;;;;;5052781;28;20468;-68
2021/01/06 01:48:30;;;;;;;5.73;5.10;;;3.00;99.90;;;;;;5052955;28;20479;-67
2021/01/06 01:51:00;;;;;;;5.63;5.00;;;3.00;99.90;;;;;;5052719;28;21024;-68
2021/01/06 01:53:31;;;;;;;5.63;5.20;;;3.00;99.90;;;;;;5041015;28;20472;-67
2021/01/06 01:55:59;;;;;;;5.80;5.20;;;3.00;99.90;;;;;;5047060;28;20512;-68
2021/01/06 01:58:31;;;;;;;4.63;4.33;;;3.10;99.90;;;;;;5041482;28;20452;-70
2021/01/06 02:00:59;;;;;;;5.87;5.37;;;3.10;99.90;;;;;;5043606;28;20491;-68
2021/01/06 02:03:33;;;;;;;5.23;4.83;;;3.10;99.90;;;;;;5053433;28;20483;-69
2021/01/06 02:06:06;;;;;;;6.10;5.50;;;3.00;99.90;;;;;;5052601;28;20468;-66
2021/01/06 02:08:37;;;;;;;7.03;5.20;;;3.10;99.90;;;;;;5033946;28;20448;-68
2021/01/06 02:11:08;;;;;;;5.80;5.30;;;3.10;99.90;;;;;;5051572;28;20511;-65
2021/01/06 02:13:41;;;;;;;7.50;5.13;;;3.00;99.90;;;;;;5033453;28;20473;-65
2021/01/06 02:16:13;;;;;;;5.33;4.93;;;3.00;99.90;;;;;;5049594;28;20477;-65
2021/01/06 02:18:39;;;;;;;5.43;4.90;;;3.10;99.90;;;;;;5052039;28;20464;-65
2021/01/06 02:21:08;;;;;;;5.60;4.40;;;3.00;99.90;;;;;;5045099;28;20876;-64
2021/01/06 02:23:37;;;;;;;6.70;5.43;;;3.00;99.90;;;;;;5041296;28;20475;-66
2021/01/06 02:26:04;;;;;;;5.07;4.53;;;3.00;99.90;;;;;;5042369;28;20476;-65
2021/01/06 02:28:30;;;;;;;5.73;5.13;;;3.20;99.90;;;;;;5049506;28;20459;-66
2021/01/06 02:30:57;;;;;;;5.70;5.17;;;3.10;99.90;;;;;;5034751;28;20467;-66
2021/01/06 02:33:24;;;;;;;5.77;5.27;;;3.10;99.90;;;;;;5033630;28;21007;-66
2021/01/06 02:35:51;;;;;;;6.93;4.80;;;3.10;99.90;;;;;;5045400;28;20475;-67
2021/01/06 02:38:19;;;;;;;5.30;4.80;;;3.10;99.90;;;;;;5050850;28;20973;-65
2021/01/06 02:40:45;;;;;;;6.73;5.80;;;3.10;99.90;;;;;;5045679;28;20843;-66
2021/01/06 02:43:12;;;;;;;6.00;5.50;;;3.10;99.90;;;;;;5052574;28;20572;-67
2021/01/06 02:45:38;;;;;;;6.20;5.60;;;3.10;99.90;;;;;;5053408;28;20522;-66
2021/01/06 02:48:05;;;;;;;5.97;5.47;;;3.30;99.90;;;;;;5052666;28;20456;-66
2021/01/06 02:50:32;;;;;;;6.57;5.87;;;3.10;99.90;;;;;;5051980;28;20804;-68
2021/01/06 02:53:02;;;;;;;6.20;5.60;;;3.10;99.90;;;;;;5052420;28;20498;-69
2021/01/06 02:55:32;;;;;;;8.47;6.50;;;3.10;99.90;;;;;;5052269;28;20471;-66
2021/01/06 02:58:04;;;;;;;7.70;5.90;;;3.00;99.90;;;;;;5050961;28;20478;-66
2021/01/06 03:00:30;;;;;;;6.30;5.70;;;3.00;99.90;;;;;;5051903;28;20495;-69
2021/01/06 03:02:58;;;;;;;6.40;5.80;;;3.00;99.90;;;;;;5052508;28;20472;-66
2021/01/06 03:05:32;;;;;;;9.30;5.97;;;3.00;99.90;;;;;;5052305;28;20468;-69
2021/01/06 03:07:59;;;;;;;7.43;6.20;;;3.00;99.90;;;;;;5049330;28;20452;-67
2021/01/06 03:10:25;;;;;;;6.60;6.10;;;3.00;99.90;;;;;;5044625;28;20486;-68
2021/01/06 03:12:55;;;;;;;6.80;6.13;;;3.00;99.90;;;;;;5052464;28;20528;-67
2021/01/06 03:15:24;;;;;;;6.93;5.53;;;3.00;99.90;;;;;;5051429;28;20468;-69
2021/01/06 03:17:50;;;;;;;7.77;6.30;;;3.00;99.90;;;;;;5052328;28;20460;-70
2021/01/06 03:20:21;;;;;;;7.73;6.33;;;3.00;99.90;;;;;;5050842;28;20525;-70
2021/01/06 03:22:50;;;;;;;6.77;6.10;;;3.10;99.90;;;;;;5052798;28;20467;-69
2021/01/06 03:25:18;;;;;;;7.40;6.57;;;3.10;99.90;;;;;;5049735;28;20464;-68
2021/01/06 03:27:48;;;;;;;5.70;5.20;;;3.00;99.90;;;;;;5052278;28;20454;-68
2021/01/06 03:30:20;;;;;;;6.67;6.17;;;3.00;99.90;;;;;;5043075;28;20529;-70
2021/01/06 03:32:52;;;;;;;7.30;6.43;;;3.00;99.90;;;;;;5051478;28;20495;-68
2021/01/06 03:35:24;;;;;;;6.70;6.10;;;3.10;99.90;;;;;;5041104;28;20460;-69
2021/01/06 03:37:54;;;;;;;6.67;6.07;;;3.00;99.90;;;;;;5049058;28;20971;-69
2021/01/06 03:40:27;;;;;;;7.50;5.87;;;3.00;99.90;;;;;;5037894;28;20924;-70
2021/01/06 03:42:55;;;;;;;6.50;6.00;;;3.00;99.90;;;;;;5048069;28;21031;-69
2021/01/06 03:45:27;;;;;;;6.07;5.47;;;3.00;99.90;;;;;;5051448;28;20467;-68
2021/01/06 03:47:59;;;;;;;6.60;6.00;;;3.00;99.90;;;;;;5050912;28;20967;-69
2021/01/06 03:50:30;;;;;;;7.23;5.90;;;3.00;99.90;;;;;;5051418;28;20456;-68
2021/01/06 03:53:08;;;;;;;7.20;5.90;;;3.00;99.90;;;;;;5051742;28;20472;-67
2021/01/06 03:55:44;;;;;;;6.40;5.90;;;3.00;99.90;;;;;;5050729;28;20837;-67
2021/01/06 03:58:26;;;;;;;6.87;6.17;;;3.00;99.90;;;;;;5051692;28;20448;-68
2021/01/06 04:00:56;;;;;;;7.10;6.47;;;3.00;99.90;;;;;;5049451;28;20491;-71
2021/01/06 04:03:29;;;;;;;6.93;6.33;;;3.10;99.90;;;;;;5034388;28;20488;-72
2021/01/06 04:05:58;;;;;;;7.70;7.00;;;3.10;99.90;;;;;;5032969;28;21010;-67
2021/01/06 04:08:38;;;;;;;7.73;7.10;;;2.60;99.90;;;;;;5050600;28;20523;-68
2021/01/06 04:11:08;;;;;;;7.77;7.07;;;2.50;99.90;;;;;;5046077;28;20493;-67
2021/01/06 04:13:34;;;;;;;7.30;6.60;;;2.40;99.90;;;;;;5035047;28;20978;-67
2021/01/06 04:16:01;;;;;;;9.27;8.37;;;2.40;99.90;;;;;;5036449;28;20452;-67
2021/01/06 04:18:28;;;;;;;8.57;7.87;;;2.40;99.90;;;;;;5054944;28;20451;-68
2021/01/06 04:20:54;;;;;;;8.97;8.07;;;2.40;99.90;;;;;;5048487;28;20487;-67
2021/01/06 04:23:20;;;;;;;8.97;8.13;;;2.40;99.90;;;;;;5055843;28;20974;-67
2021/01/06 04:25:49;;;;;;;8.33;7.63;;;2.40;99.90;;;;;;5054002;28;20502;-66
2021/01/06 04:28:17;;;;;;;8.90;7.97;;;2.40;99.90;;;;;;5054748;28;20455;-66
2021/01/06 04:30:47;;;;;;;8.60;7.90;;;2.40;99.90;;;;;;5055170;28;20455;-67
2021/01/06 04:33:18;;;;;;;8.50;7.80;;;2.40;99.90;;;;;;5046154;28;20491;-67
2021/01/06 04:35:45;;;;;;;9.50;8.63;;;2.30;99.90;;;;;;5039481;28;20439;-66
2021/01/06 04:38:17;;;;;;;8.67;7.97;;;2.30;99.90;;;;;;5050645;28;20468;-66
2021/01/06 04:40:45;;;;;;;8.87;8.00;;;2.30;99.90;;;;;;5047116;28;20483;-66
2021/01/06 04:43:20;;;;;;;8.23;7.63;;;2.30;99.90;;;;;;5050685;28;20498;-66
2021/01/06 04:45:57;;;;;;;9.07;8.30;;;2.30;99.90;;;;;;5034782;28;20451;-67
2021/01/06 04:48:41;;;;;;;8.50;7.80;;;2.30;99.90;;;;;;5050834;28;20807;-68
2021/01/06 04:51:30;;;;;;;8.03;7.23;;;2.30;99.90;;;;;;5052709;28;20525;-66
2021/01/06 04:54:17;;;;;;;8.13;7.53;;;2.30;99.90;;;;;;5053316;28;20463;-65
2021/01/06 04:57:08;;;;;;;8.43;7.53;;;2.30;99.90;;;;;;5054706;28;20443;-65
2021/01/06 05:00:08;;;;;;;8.03;7.30;;;2.30;99.90;;;;;;5046228;28;20498;-66
2021/01/06 05:03:04;;;;;;;8.90;8.00;;;2.30;99.90;;;;;;5054129;28;20490;-67
2021/01/06 05:05:42;;;;;;;8.20;7.50;;;2.30;99.90;;;;;;5054155;28;20478;-67
2021/01/06 05:08:18;;;;;;;7.93;7.23;;;2.30;99.90;;;;;;5052734;28;20996;-67
2021/01/06 05:10:51;;;;;;;8.30;7.60;;;2.30;99.90;;;;;;5054132;28;20450;-66
2021/01/06 05:13:23;;;;;;;8.30;7.60;;;2.30;99.90;;;;;;5053485;28;20472;-67
2021/01/06 05:15:53;;;;;;;7.93;7.23;;;2.30;99.90;;;;;;5052189;28;20454;-67
2021/01/06 05:18:19;;;;;;;8.70;8.00;;;2.30;99.90;;;;;;5054065;28;20517;-67
2021/01/06 05:20:46;;;;;;;7.93;7.30;;;2.30;99.90;;;;;;5051962;28;20487;-67
2021/01/06 05:23:18;;;;;;;8.17;7.47;;;2.30;99.90;;;;;;5034857;28;20894;-66
2021/01/06 05:25:45;;;;;;;8.00;7.30;;;2.30;99.90;;;;;;5037050;28;20464;-66
2021/01/06 05:28:14;;;;;;;8.40;7.63;;;2.30;99.90;;;;;;5039152;28;20832;-66
2021/01/06 05:30:42;;;;;;;8.20;7.00;;;2.30;99.90;;;;;;5045963;28;20460;-68
2021/01/06 05:33:12;;;;;;;9.20;8.40;;;2.30;99.90;;;;;;5034931;28;20464;-67
2021/01/06 05:35:40;;;;;;;8.50;7.80;;;2.30;99.90;;;;;;5047813;28;20509;-67
2021/01/06 05:38:09;;;;;;;8.70;7.90;;;2.30;99.90;;;;;;5041850;28;20472;-67
2021/01/06 05:40:37;;;;;;;8.27;7.43;;;2.30;99.90;;;;;;5053079;28;20519;-66
2021/01/06 05:43:06;;;;;;;7.57;6.97;;;2.30;99.90;;;;;;5053871;28;20483;-67
2021/01/06 05:45:43;;;;;;;8.70;7.90;;;2.30;99.90;;;;;;5052610;28;20466;-66
2021/01/06 05:48:17;;;;;;;8.70;7.90;;;2.30;99.90;;;;;;5053603;28;20475;-65
2021/01/06 05:50:50;;;;;;;8.10;7.30;;;2.30;99.90;;;;;;5044871;28;20490;-67
2021/01/06 05:53:26;;;;;;;8.33;7.60;;;2.30;99.90;;;;;;5053247;28;20491;-67
2021/01/06 05:55:53;;;;;;;7.77;7.17;;;2.30;99.90;;;;;;5041190;28;20488;-67
2021/01/06 05:58:24;;;;;;;10.23;7.33;;;2.30;99.90;;;;;;5053422;28;20443;-67
2021/01/06 06:01:05;;;;;;;9.17;7.57;;;2.30;99.90;;;;;;5053847;28;20480;-67
2021/01/06 06:03:52;;;;;;;7.57;6.80;;;2.40;99.90;;;;;;5047974;28;20534;-69
2021/01/06 06:06:57;;;;;;;8.40;7.40;;;2.40;99.90;;;;;;5043992;28;20471;-68
2021/01/06 06:10:01;;;;;;;8.30;7.40;;;2.30;99.90;;;;;;5039542;28;20463;-69
2021/01/06 06:12:45;;;;;;;8.77;7.97;;;2.40;99.90;;;;;;5039937;28;20517;-68
2021/01/06 06:15:32;;;;;;;8.27;7.47;;;2.30;99.90;;;;;;5053556;28;20517;-67
2021/01/06 06:18:31;;;;;;;8.37;7.57;;;2.30;99.90;;;;;;5044322;28;20464;-67
2021/01/06 06:21:00;;;;;;;8.03;7.33;;;2.30;99.90;;;;;;5036095;28;20488;-67
2021/01/06 06:24:03;;;;;;;8.40;7.20;;;2.30;99.90;;;;;;5053610;28;20464;-67
2021/01/06 06:26:43;;;;;;;8.70;8.00;;;2.30;99.90;;;;;;4990138;28;20458;-66
2021/01/06 06:29:20;;;;;;;8.53;7.73;;;2.30;99.90;;;;;;4991964;28;21039;-66
2021/01/06 06:31:50;;;;;;;9.73;8.30;;;2.30;99.90;;;;;;5029475;28;20461;-67
2021/01/06 06:34:26;;;;;;;8.67;7.40;;;2.30;99.90;;;;;;5053348;28;20501;-67
2021/01/06 06:37:09;;;;;;;9.00;8.17;;;2.20;99.90;;;;;;5052098;28;20959;-67
2021/01/06 06:39:39;;;;;;;9.23;8.43;;;2.20;99.90;;;;;;5052555;28;20498;-67
2021/01/06 06:42:18;;;;;;;9.00;8.20;;;2.20;99.90;;;;;;5052812;28;20479;-68
2021/01/06 06:44:54;;;;;;;11.07;9.27;;;2.20;99.90;;;;;;5051385;28;20459;-67
2021/01/06 06:47:23;;;;;;;9.30;8.40;;;2.20;99.90;;;;;;5050729;28;20467;-66
2021/01/06 06:50:34;;;;;;;11.63;9.23;;;2.20;99.90;;;;;;5046537;28;20445;-67
2021/01/06 06:53:07;;;;;;;10.13;9.23;;;2.20;99.90;;;;;;5041096;28;20471;-67
2021/01/06 06:55:45;;;;;;;11.33;9.60;;;2.20;99.90;;;;;;5051037;28;20444;-67
2021/01/06 06:58:37;;;;;;;10.33;9.20;;;2.20;99.90;;;;;;5052716;28;20808;-67
2021/01/06 07:01:08;;;;;;;10.90;9.90;;;2.20;99.90;;;;;;5050660;28;20483;-67
2021/01/06 07:03:37;;;;;;;10.37;9.47;;;2.20;99.90;;;;;;5052765;28;20479;-67
2021/01/06 07:06:08;;;;;;;11.93;10.83;;;2.10;99.90;;;;;;5051339;28;20525;-67
2021/01/06 07:08:38;;;;;;;9.57;8.67;;;2.20;99.90;;;;;;5032574;28;20471;-67
2021/01/06 07:11:09;;;;;;;11.03;9.70;;;2.20;99.90;;;;;;5042671;28;20468;-66
2021/01/06 07:13:37;;;;;;;12.20;11.00;;;2.10;99.90;;;;;;5051448;28;20568;-66
2021/01/06 07:16:14;;;;;;;11.50;10.27;;;2.20;99.90;;;;;;5038405;28;20472;-68
2021/01/06 07:18:42;;;;;;;11.20;10.20;;;2.10;99.90;;;;;;5050429;28;20478;-68
2021/01/06 07:21:31;;;;;;;12.30;11.10;;;2.20;99.90;;;;;;5047410;28;20891;-67
2021/01/06 07:24:04;;;;;;;11.93;10.80;;;2.00;99.90;;;;;;5047307;28;20876;-68
2021/01/06 07:26:37;;;;;;;12.60;11.20;;;2.00;99.90;;;;;;5032413;28;20449;-68
2021/01/06 07:29:07;;;;;;;4.60;4.20;;;2.00;99.90;;;;;;5037192;28;20544;-72
2021/01/06 07:31:40;;;;;;;10.60;9.50;;;10.40;99.90;;;;;;5032225;28;20857;-69
2021/01/06 07:34:12;;;;;;;11.93;10.70;;;4.10;99.90;;;;;;5040115;28;20582;-67
2021/01/06 07:36:48;;;;;;;13.73;11.50;;;2.60;99.90;;;;;;5052148;28;20813;-67
2021/01/06 07:39:20;;;;;;;11.57;10.07;;;2.20;99.90;;;;;;5043822;28;21017;-67
2021/01/06 07:41:46;;;;;;;12.10;10.90;;;2.10;99.90;;;;;;5031910;28;20477;-66
2021/01/06 07:44:23;;;;;;;12.03;10.63;;;2.10;99.90;;;;;;5049666;28;20464;-67
2021/01/06 07:46:58;;;;;;;13.03;11.80;;;2.00;99.90;;;;;;5051473;28;20453;-67
2021/01/06 07:49:43;;;;;;;13.00;11.77;;;2.00;99.90;;;;;;5051872;28;20840;-67
2021/01/06 07:52:27;;;;;;;13.10;11.80;;;2.00;99.90;;;;;;5051619;28;20481;-67
2021/01/06 07:54:57;;;;;;;12.80;11.50;;;1.90;99.90;;;;;;5032946;28;20441;-67
2021/01/06 07:57:35;;;;;;;14.47;11.87;;;1.90;99.90;;;;;;5040349;28;20456;-67
2021/01/06 08:00:08;;;;;;;12.27;11.00;;;1.90;99.90;;;;;;5052139;28;21032;-66
2021/01/06 08:02:41;;;;;;;12.23;10.63;;;1.90;99.90;;;;;;5052116;28;20579;-67
2021/01/06 08:05:26;;;;;;;13.80;12.40;;;1.90;99.90;;;;;;5051724;28;20480;-67
2021/01/06 08:08:05;;;;;;;13.43;11.57;;;2.00;99.90;;;;;;5052330;28;20491;-66
2021/01/06 08:10:32;;;;;;;12.90;11.60;;;1.90;99.90;;;;;;5052312;28;20451;-67
2021/01/06 08:13:19;;;;;;;13.33;12.03;;;2.00;99.90;;;;;;5051603;28;20482;-66
2021/01/06 08:15:50;;;;;;;13.60;11.17;;;1.90;99.90;;;;;;5052206;28;20822;-66
2021/01/06 08:18:41;;;;;;;14.30;11.47;;;2.00;99.90;;;;;;5047428;28;20455;-66
2021/01/06 08:21:15;;;;;;;12.47;11.27;;;2.00;99.90;;;;;;5037301;28;20542;-66
2021/01/06 08:23:59;;;;;;;12.10;10.90;;;1.90;99.90;;;;;;5033160;28;20471;-67
2021/01/06 08:26:28;;;;;;;11.60;4.47;;;1.90;99.90;;;;;;5033289;28;20475;-75
2021/01/06 08:29:13;;;;;;;4.97;4.47;;;6.70;99.90;;;;;;5038508;28;20835;-66
2021/01/06 08:31:41;;;;;;;4.17;3.60;;;12.40;99.90;;;;;;5051669;28;20447;-66
2021/01/06 08:34:18;;;;;;;4.50;3.30;;;13.40;99.90;;;;;;5050641;28;20460;-67
2021/01/06 08:36:44;;;;;;;3.00;2.70;;;14.30;99.90;;;;;;5046475;28;20453;-68
2021/01/06 08:39:17;;;;;;;4.10;3.13;;;15.50;99.90;;;;;;5050077;28;20482;-70
2021/01/06 08:41:43;;;;;;;4.17;3.67;;;16.40;99.90;;;;;;5051229;28;20561;-71
2021/01/06 08:44:28;;;;;;;3.23;3.03;;;17.10;99.90;;;;;;5033420;28;20457;-70
2021/01/06 08:46:57;;;;;;;4.00;3.70;;;18.00;99.90;;;;;;5034252;28;20460;-70
2021/01/06 08:49:27;;;;;;;3.80;3.40;;;18.50;99.90;;;;;;5051284;28;20802;-71
2021/01/06 08:51:55;;;;;;;3.70;3.10;;;18.90;99.90;;;;;;5049196;28;20491;-71
2021/01/06 08:54:31;;;;;;;2.80;2.60;;;19.00;99.90;;;;;;5048426;28;20456;-72
2021/01/06 08:57:02;;;;;;;12.70;3.80;;;19.50;99.90;;;;;;5050323;28;20886;-71
2021/01/06 08:59:35;;;;;;;3.53;2.23;;;19.90;99.90;;;;;;5050991;28;20448;-69
2021/01/06 09:02:10;;;;;;;2.47;2.00;;;19.70;99.90;;;;;;5051665;28;20484;-69
2021/01/06 09:04:40;;;;;;;3.47;2.10;;;20.10;99.90;;;;;;5039163;28;20463;-70
2021/01/06 09:07:18;;;;;;;2.70;1.67;;;20.20;99.90;;;;;;5042675;28;20452;-69
2021/01/06 09:10:02;;;;;;;2.70;2.50;;;20.20;99.90;;;;;;5045034;28;20458;-69
2021/01/06 09:12:49;;;;;;;3.40;2.73;;;20.20;99.90;;;;;;5049604;28;21026;-69
2021/01/06 09:15:23;;;;;;;2.77;1.90;;;20.10;99.90;;;;;;5036166;28;20444;-69
2021/01/06 09:17:59;;;;;;;2.00;1.80;;;19.70;99.90;;;;;;5049468;28;20455;-69
2021/01/06 09:20:34;;;;;;;3.43;1.90;;;20.10;99.90;;;;;;5054650;28;20487;-67
2021/01/06 09:23:00;;;;;;;1.83;1.63;;;20.20;99.90;;;;;;5088819;22;21032;-67
2021/01/06 09:25:29;;;;;;;3.77;1.67;;;20.30;99.90;;;;;;5071920;28;20446;-68
2021/01/06 09:28:00;;;;;;;3.17;1.90;;;20.50;99.90;;;;;;5067511;28;20453;-68
2021/01/06 09:30:30;;;;;;;3.30;2.20;;;20.50;99.90;;;;;;5071965;28;20456;-68
2021/01/06 09:33:00;;;;;;;2.13;1.83;;;20.30;99.90;;;;;;5059633;28;20885;-68
2021/01/06 09:35:31;;;;;;;1.83;1.73;;;20.40;99.90;;;;;;5044101;28;20970;-68
2021/01/06 09:38:02;;;;;;;3.80;1.67;;;20.40;99.90;;;;;;5033914;28;20456;-68
2021/01/06 09:40:31;;;;;;;3.03;2.10;;;20.10;99.90;;;;;;5033721;28;20484;-68
2021/01/06 09:43:01;;;;;;;1.60;1.50;;;20.20;99.90;;;;;;5033733;28;20556;-67
2021/01/06 09:45:29;;;;;;;3.13;2.07;;;20.30;99.90;;;;;;5034952;28;20626;-68
2021/01/06 09:47:59;;;;;;;2.67;2.10;;;20.30;99.90;;;;;;5048441;28;20452;-68
2021/01/06 09:50:30;;;;;;;1.93;1.70;;;20.20;99.90;;;;;;5052770;28;20451;-68
2021/01/06 09:53:01;;;;;;;2.03;1.83;;;20.30;99.90;;;;;;5053355;28;20476;-69
2021/01/06 09:55:42;;;;;;;8.27;7.57;;;19.80;99.90;;;;;;5037916;28;20445;-70
2021/01/06 09:58:18;;;;;;;8.73;8.13;;;6.50;99.90;;;;;;5039985;28;20455;-68
2021/01/06 10:00:51;;;;;;;8.83;8.10;;;4.10;99.90;;;;;;5042995;28;21005;-68
2021/01/06 10:03:18;;;;;;;9.20;8.50;;;3.20;99.90;;;;;;5045756;28;20592;-69
2021/01/06 10:05:56;;;;;;;9.37;8.57;;;3.10;99.90;;;;;;5043090;28;20919;-68
2021/01/06 10:08:30;;;;;;;10.23;9.43;;;2.70;99.90;;;;;;5052702;28;20460;-68
2021/01/06 10:11:06;;;;;;;9.90;9.10;;;2.60;99.90;;;;;;5051872;28;20447;-68
2021/01/06 10:13:53;;;;;;;10.10;9.30;;;2.60;99.90;;;;;;5052116;28;20471;-68
2021/01/06 10:16:25;;;;;;;9.87;8.97;;;2.50;99.90;;;;;;5041709;28;20816;-69
2021/01/06 10:19:08;;;;;;;9.50;8.70;;;2.50;99.90;;;;;;5034162;28;20510;-68
2021/01/06 10:21:45;;;;;;;10.90;10.00;;;2.40;99.90;;;;;;5046814;28;20487;-69
2021/01/06 10:24:27;;;;;;;9.60;8.90;;;2.40;99.90;;;;;;5051680;28;20453;-68
2021/01/06 10:27:03;;;;;;;10.30;9.50;;;2.40;99.90;;;;;;5049451;28;20452;-68
2021/01/06 10:29:46;;;;;;;9.70;8.90;;;2.40;99.90;;;;;;5052239;28;20459;-68
2021/01/06 10:32:39;;;;;;;9.20;8.50;;;2.40;99.90;;;;;;5032834;28;20471;-68
2021/01/06 10:35:29;;;;;;;10.50;9.70;;;2.30;99.90;;;;;;5045425;28;20472;-69
2021/01/06 10:37:55;;;;;;;10.57;9.67;;;2.30;99.90;;;;;;5048574;28;20521;-68
2021/01/06 10:40:34;;;;;;;9.73;8.93;;;2.30;99.90;;;;;;5041893;28;20492;-69
2021/01/06 10:43:34;;;;;;;10.00;9.10;;;2.30;99.90;;;;;;5047804;28;20495;-69
2021/01/06 10:46:01;;;;;;;9.57;8.83;;;2.40;99.90;;;;;;5037327;28;20449;-69
2021/01/06 10:48:45;;;;;;;9.97;9.17;;;2.50;99.90;;;;;;5039761;28;20510;-69
2021/01/06 10:51:45;;;;;;;11.00;10.10;;;2.40;99.90;;;;;;5045682;28;20480;-69
2021/01/06 10:54:14;;;;;;;11.23;10.27;;;2.40;99.90;;;;;;5040498;28;20452;-69
2021/01/06 10:56:41;;;;;;;9.33;8.53;;;2.30;99.90;;;;;;5052259;28;20428;-70
2021/01/06 10:59:14;;;;;;;9.90;9.10;;;2.30;99.90;;;;;;5050732;28;20444;-70
2021/01/06 11:02:06;;;;;;;10.13;9.23;;;2.40;99.90;;;;;;5051790;28;20503;-67
2021/01/06 11:04:51;;;;;;;8.63;8.03;;;2.30;99.90;;;;;;5051556;28;20448;-67
2021/01/06 11:07:25;;;;;;;8.93;8.27;;;2.30;99.90;;;;;;5034260;28;20453;-67
2021/01/06 11:10:14;;;;;;;9.07;8.27;;;2.30;99.90;;;;;;5040761;28;21015;-67
2021/01/06 11:13:03;;;;;;;9.47;8.67;;;2.30;99.90;;;;;;5051283;28;20468;-67
2021/01/06 11:16:00;;;;;;;8.63;8.03;;;2.30;99.90;;;;;;5051940;28;20431;-67
2021/01/06 11:18:41;;;;;;;9.37;8.57;;;2.30;99.90;;;;;;5006924;28;20467;-67
2021/01/06 11:21:12;;;;;;;9.17;8.37;;;2.30;99.90;;;;;;5046838;28;20484;-69
2021/01/06 11:23:54;;;;;;;8.67;8.03;;;2.30;99.90;;;;;;5051121;28;20893;-68
2021/01/06 11:26:53;;;;;;;7.90;7.20;;;2.30;99.90;;;;;;5044474;28;20539;-68
2021/01/06 11:29:30;;;;;;;8.20;7.60;;;2.20;99.90;;;;;;5051727;28;20964;-68
2021/01/06 11:32:27;;;;;;;8.53;7.83;;;2.30;99.90;;;;;;5050833;28;20489;-68
2021/01/06 11:35:10;;;;;;;8.67;7.93;;;2.30;99.90;;;;;;5050328;28;20451;-68
2021/01/06 11:37:40;;;;;;;7.93;7.33;;;2.30;99.90;;;;;;5051382;28;20440;-68
2021/01/06 11:40:11;;;;;;;7.10;6.60;;;2.40;99.90;;;;;;5051019;28;20487;-68
2021/01/06 11:42:56;;;;;;;7.77;7.17;;;2.30;99.90;;;;;;5032167;28;20827;-68
2021/01/06 11:45:25;;;;;;;7.17;6.57;;;2.20;99.90;;;;;;5031656;28;20507;-68
2021/01/06 11:47:55;;;;;;;7.90;7.30;;;2.20;99.90;;;;;;5037370;28;20449;-68
2021/01/06 11:50:38;;;;;;;7.97;7.17;;;2.20;99.90;;;;;;5031948;28;20499;-68
2021/01/06 11:53:15;;;;;;;8.10;7.50;;;2.20;99.90;;;;;;5051683;28;20460;-69
2021/01/06 11:55:46;;;;;;;10.13;9.13;;;2.20;99.90;;;;;;5038479;28;20452;-69
2021/01/06 11:58:37;;;;;;;8.60;7.90;;;2.10;99.90;;;;;;5031485;28;20449;-70
2021/01/06 12:01:29;;;;;;;3.00;2.80;;;3.50;99.90;;;;;;5045834;28;20995;-71
2021/01/06 12:04:21;;;;;;;2.23;2.13;;;11.80;99.90;;;;;;5051130;28;20444;-71
2021/01/06 12:06:59;;;;;;;5.83;5.43;;;15.80;99.90;;;;;;5043627;28;20459;-71
2021/01/06 12:09:41;;;;;;;6.87;6.40;;;8.00;99.90;;;;;;5041745;28;20449;-69
2021/01/06 12:12:34;;;;;;;7.63;6.83;;;3.60;99.90;;;;;;5031668;28;20456;-69
2021/01/06 12:15:20;;;;;;;6.90;6.40;;;2.90;99.90;;;;;;5042142;28;20444;-70
2021/01/06 12:17:51;;;;;;;7.47;6.87;;;2.50;99.90;;;;;;5051867;28;20820;-69
2021/01/06 12:20:23;;;;;;;7.07;6.40;;;2.30;99.90;;;;;;5033694;28;20484;-69
2021/01/06 12:23:17;;;;;;;6.90;6.40;;;2.20;99.90;;;;;;5042415;28;20476;-69
2021/01/06 12:25:48;;;;;;;8.27;7.67;;;2.20;99.90;;;;;;5052210;28;20448;-69
2021/01/06 12:28:32;;;;;;;8.87;8.07;;;2.00;99.90;;;;;;5929375;22;20442;-68
2021/01/06 12:31:22;;;;;;;8.60;7.80;;;2.10;99.90;;;;;;5027702;28;20852;-68
2021/01/06 12:34:02;;;;;;;7.77;7.17;;;2.00;99.90;;;;;;5021604;28;20465;-68
2021/01/06 12:36:31;;;;;;;7.27;6.77;;;2.00;99.90;;;;;;5033399;28;20942;-68
2021/01/06 12:39:20;;;;;;;7.23;6.70;;;2.00;99.90;;;;;;5034976;28;20472;-68
2021/01/06 12:41:50;;;;;;;8.30;7.60;;;1.90;99.90;;;;;;5029520;28;20516;-68
2021/01/06 12:44:20;;;;;;;7.93;7.23;;;1.90;99.90;;;;;;5015221;28;20449;-67
2021/01/06 12:46:56;;;;;;;3.47;3.07;;;1.80;99.90;;;;;;5014402;28;20448;-69
2021/01/06 12:50:01;;;;;;;13.57;6.90;;;14.00;99.90;;;;;;5005760;28;20488;-66
2021/01/06 12:52:39;;;;;;;9.23;6.10;;;17.20;99.90;;;;;;4933172;29;20456;-66
2021/01/06 12:55:28;;;;;;;13.33;7.07;;;19.30;99.90;;;;;;5023092;28;20985;-66
2021/01/06 12:58:00;;;;;;;17.60;9.70;;;20.00;99.90;;;;;;5027146;28;20440;-69
2021/01/06 13:00:33;;;;;;;20.10;12.53;;;20.30;99.90;;;;;;5038555;28;20521;-69
2021/01/06 13:03:47;;;;;;;33.40;16.40;;;20.50;99.90;;;;;;5038576;28;20429;-67
2021/01/06 13:06:23;;;;;;;2.63;2.43;;;20.60;99.90;;;;;;5071878;22;20494;-65
2021/01/06 13:08:56;;;;;;;5.67;5.30;;;11.70;99.90;;;;;;5060689;28;20446;-64
2021/01/06 13:11:28;;;;;;;5.20;4.80;;;5.50;99.90;;;;;;5052243;28;20447;-63
2021/01/06 13:14:19;;;;;;;6.07;5.63;;;3.90;99.90;;;;;;5035077;28;20428;-63
2021/01/06 13:16:56;;;;;;;6.70;6.30;;;3.00;99.90;;;;;;5020204;28;20448;-63
2021/01/06 13:19:34;;;;;;;6.70;6.10;;;2.70;99.90;;;;;;5054443;28;20451;-64
2021/01/06 13:22:16;;;;;;;6.93;6.43;;;2.50;99.90;;;;;;5041830;28;20484;-64
2021/01/06 13:24:46;;;;;;;7.90;7.30;;;2.30;99.90;;;;;;5015264;28;20812;-64
2021/01/06 13:27:37;;;;;;;6.97;6.47;;;2.30;99.90;;;;;;5025969;28;20447;-65
2021/01/06 13:30:17;;;;;;;7.70;7.10;;;2.20;99.90;;;;;;5026238;28;20498;-64